sensor_id;sensor_type;location;lat;lon;timestamp;pressure;altitude;pressure_sealevel;temperature
15144;BMP180;7672;50.834;6.286;2022-07-29T03:12:28;99608.59;;;22.10
15144;BMP180;7672;50.834;6.286;2022-07-29T03:14:56;99624.25;;;22.05
15144;BMP180;7672;50.834;6.286;2022-07-29T03:17:23;99627.00;;;22.01
15144;BMP180;7672;50.834;6.286;2022-07-29T03:19:51;99620.25;;;21.98
15144;BMP180;7672;50.834;6.286;2022-07-29T03:22:18;99626.31;;;21.97
15144;BMP180;7672;50.834;6.286;2022-07-29T03:24:45;99620.41;;;21.95
15144;BMP180;7672;50.834;6.286;2022-07-29T03:27:12;99634.16;;;21.94
15144;BMP180;7672;50.834;6.286;2022-07-29T03:29:39;99615.47;;;21.91
15144;BMP180;7672;50.834;6.286;2022-07-29T03:32:11;99626.56;;;21.91
15144;BMP180;7672;50.834;6.286;2022-07-29T03:34:39;99629.28;;;21.88
15144;BMP180;7672;50.834;6.286;2022-07-29T03:37:06;99628.38;;;21.89
15144;BMP180;7672;50.834;6.286;2022-07-29T03:39:40;99626.75;;;21.87
15144;BMP180;7672;50.834;6.286;2022-07-29T03:42:10;99620.84;;;21.85
15144;BMP180;7672;50.834;6.286;2022-07-29T03:44:41;99620.94;;;21.83
15144;BMP180;7672;50.834;6.286;2022-07-29T03:47:13;99618.47;;;21.80
15144;BMP180;7672;50.834;6.286;2022-07-29T03:49:44;99616.09;;;21.76
15144;BMP180;7672;50.834;6.286;2022-07-29T03:52:13;99624.72;;;21.75
15144;BMP180;7672;50.834;6.286;2022-07-29T03:54:40;99630.00;;;21.72
15144;BMP180;7672;50.834;6.286;2022-07-29T03:57:10;99632.69;;;21.69
15144;BMP180;7672;50.834;6.286;2022-07-29T03:59:39;99638.78;;;21.67
15144;BMP180;7672;50.834;6.286;2022-07-29T04:02:10;99645.75;;;21.65
15144;BMP180;7672;50.834;6.286;2022-07-29T04:04:38;99648.38;;;21.63
15144;BMP180;7672;50.834;6.286;2022-07-29T04:07:05;99643.28;;;21.62
15144;BMP180;7672;50.834;6.286;2022-07-29T04:09:32;99641.66;;;21.59
15144;BMP180;7672;50.834;6.286;2022-07-29T04:12:00;99639.22;;;21.56
15144;BMP180;7672;50.834;6.286;2022-07-29T04:14:31;99652.16;;;21.55
15144;BMP180;7672;50.834;6.286;2022-07-29T04:16:59;99654.00;;;21.51
15144;BMP180;7672;50.834;6.286;2022-07-29T04:19:26;99648.13;;;21.48
15144;BMP180;7672;50.834;6.286;2022-07-29T04:21:53;99659.19;;;21.50
15144;BMP180;7672;50.834;6.286;2022-07-29T04:24:20;99659.25;;;21.48
15144;BMP180;7672;50.834;6.286;2022-07-29T04:26:47;99654.13;;;21.48
15144;BMP180;7672;50.834;6.286;2022-07-29T04:29:14;99645.53;;;21.48
15144;BMP180;7672;50.834;6.286;2022-07-29T04:31:42;99652.38;;;21.49
15144;BMP180;7672;50.834;6.286;2022-07-29T04:34:10;99656.69;;;21.48
15144;BMP180;7672;50.834;6.286;2022-07-29T04:36:37;99653.25;;;21.48
15144;BMP180;7672;50.834;6.286;2022-07-29T04:39:04;99666.91;;;21.50
15144;BMP180;7672;50.834;6.286;2022-07-29T04:41:31;99671.94;;;21.53
15144;BMP180;7672;50.834;6.286;2022-07-29T04:44:00;99667.59;;;21.55
15144;BMP180;7672;50.834;6.286;2022-07-29T04:46:33;99673.50;;;21.57
15144;BMP180;7672;50.834;6.286;2022-07-29T04:49:00;99675.91;;;21.61
15144;BMP180;7672;50.834;6.286;2022-07-29T04:51:27;99675.75;;;21.64
15144;BMP180;7672;50.834;6.286;2022-07-29T04:53:54;99671.41;;;21.66
15144;BMP180;7672;50.834;6.286;2022-07-29T04:56:21;99666.91;;;21.71
15144;BMP180;7672;50.834;6.286;2022-07-29T04:58:48;99668.44;;;21.75
15144;BMP180;7672;50.834;6.286;2022-07-29T05:01:14;99663.16;;;21.78
15144;BMP180;7672;50.834;6.286;2022-07-29T05:03:42;99664.84;;;21.79
15144;BMP180;7672;50.834;6.286;2022-07-29T05:06:09;99662.34;;;21.77
15144;BMP180;7672;50.834;6.286;2022-07-29T05:08:37;99681.31;;;21.75
15144;BMP180;7672;50.834;6.286;2022-07-29T05:11:07;99685.09;;;21.67
15144;BMP180;7672;50.834;6.286;2022-07-29T05:13:39;99677.00;;;21.56
15144;BMP180;7672;50.834;6.286;2022-07-29T05:16:51;99663.63;;;21.25
15144;BMP180;7672;50.834;6.286;2022-07-29T05:19:33;99659.91;;;20.89
15144;BMP180;7672;50.834;6.286;2022-07-29T05:22:05;99681.38;;;20.64
15144;BMP180;7672;50.834;6.286;2022-07-29T05:24:32;99679.63;;;20.42
15144;BMP180;7672;50.834;6.286;2022-07-29T05:26:58;99685.34;;;20.27
15144;BMP180;7672;50.834;6.286;2022-07-29T05:29:25;99678.91;;;20.15
15144;BMP180;7672;50.834;6.286;2022-07-29T05:32:12;99671.59;;;20.03
15144;BMP180;7672;50.834;6.286;2022-07-29T05:34:39;99671.97;;;19.93
15144;BMP180;7672;50.834;6.286;2022-07-29T05:37:20;99682.56;;;19.83
15144;BMP180;7672;50.834;6.286;2022-07-29T05:39:47;99682.91;;;19.72
15144;BMP180;7672;50.834;6.286;2022-07-29T05:42:23;99683.25;;;19.62
15144;BMP180;7672;50.834;6.286;2022-07-29T05:44:51;99698.94;;;19.53
15144;BMP180;7672;50.834;6.286;2022-07-29T05:47:18;99685.53;;;19.45
15144;BMP180;7672;50.834;6.286;2022-07-29T05:49:45;99692.47;;;19.41
15144;BMP180;7672;50.834;6.286;2022-07-29T05:52:12;99690.03;;;19.38
15144;BMP180;7672;50.834;6.286;2022-07-29T05:54:42;99695.22;;;19.35
15144;BMP180;7672;50.834;6.286;2022-07-29T05:57:22;99706.28;;;19.37
15144;BMP180;7672;50.834;6.286;2022-07-29T05:59:50;99708.00;;;19.37
15144;BMP180;7672;50.834;6.286;2022-07-29T06:02:18;99704.47;;;19.39
15144;BMP180;7672;50.834;6.286;2022-07-29T06:04:45;99697.59;;;19.41
15144;BMP180;7672;50.834;6.286;2022-07-29T06:07:12;99699.97;;;19.47
15144;BMP180;7672;50.834;6.286;2022-07-29T06:09:39;99699.81;;;19.52
15144;BMP180;7672;50.834;6.286;2022-07-29T06:12:06;99698.81;;;19.56
15144;BMP180;7672;50.834;6.286;2022-07-29T06:14:32;99702.84;;;19.64
15144;BMP180;7672;50.834;6.286;2022-07-29T06:16:59;99699.19;;;19.71
15144;BMP180;7672;50.834;6.286;2022-07-29T06:19:26;99693.84;;;19.77
15144;BMP180;7672;50.834;6.286;2022-07-29T06:21:53;99700.53;;;19.83
15144;BMP180;7672;50.834;6.286;2022-07-29T06:24:20;99707.16;;;19.88
15144;BMP180;7672;50.834;6.286;2022-07-29T06:26:46;99703.81;;;19.86
15144;BMP180;7672;50.834;6.286;2022-07-29T06:29:13;99691.91;;;19.83
15144;BMP180;7672;50.834;6.286;2022-07-29T06:31:40;99694.53;;;19.82
15144;BMP180;7672;50.834;6.286;2022-07-29T06:34:07;99699.66;;;19.82
15144;BMP180;7672;50.834;6.286;2022-07-29T06:36:36;99691.22;;;19.79
15144;BMP180;7672;50.834;6.286;2022-07-29T06:39:08;99698.03;;;19.80
15144;BMP180;7672;50.834;6.286;2022-07-29T06:41:37;99697.09;;;19.82
15144;BMP180;7672;50.834;6.286;2022-07-29T06:44:04;99692.84;;;19.83
15144;BMP180;7672;50.834;6.286;2022-07-29T06:46:31;99692.78;;;19.84
15144;BMP180;7672;50.834;6.286;2022-07-29T06:48:59;99698.59;;;19.89
15144;BMP180;7672;50.834;6.286;2022-07-29T06:51:28;99696.75;;;19.94
15144;BMP180;7672;50.834;6.286;2022-07-29T06:53:55;99693.06;;;20.01
15144;BMP180;7672;50.834;6.286;2022-07-29T06:56:34;99689.44;;;20.06
15144;BMP180;7672;50.834;6.286;2022-07-29T06:59:09;99695.94;;;20.16
15144;BMP180;7672;50.834;6.286;2022-07-29T07:01:39;99706.56;;;20.32
15144;BMP180;7672;50.834;6.286;2022-07-29T07:04:07;99713.00;;;20.42
15144;BMP180;7672;50.834;6.286;2022-07-29T07:06:35;99721.19;;;20.52
15144;BMP180;7672;50.834;6.286;2022-07-29T07:09:03;99720.97;;;20.58
15144;BMP180;7672;50.834;6.286;2022-07-29T07:11:30;99727.69;;;20.62
15144;BMP180;7672;50.834;6.286;2022-07-29T07:13:57;99736.06;;;20.67
15144;BMP180;7672;50.834;6.286;2022-07-29T07:16:30;99739.50;;;20.66
15144;BMP180;7672;50.834;6.286;2022-07-29T07:18:57;99740.34;;;20.67
15144;BMP180;7672;50.834;6.286;2022-07-29T07:21:24;99736.81;;;20.69
15144;BMP180;7672;50.834;6.286;2022-07-29T07:23:51;99740.97;;;20.73
15144;BMP180;7672;50.834;6.286;2022-07-29T07:26:18;99731.34;;;20.80
15144;BMP180;7672;50.834;6.286;2022-07-29T07:28:45;99734.28;;;20.92
15144;BMP180;7672;50.834;6.286;2022-07-29T07:31:11;99740.19;;;21.17
15144;BMP180;7672;50.834;6.286;2022-07-29T07:33:38;99737.59;;;21.40
15144;BMP180;7672;50.834;6.286;2022-07-29T07:36:05;99740.13;;;21.63
15144;BMP180;7672;50.834;6.286;2022-07-29T07:38:32;99733.19;;;21.86
15144;BMP180;7672;50.834;6.286;2022-07-29T07:41:00;99734.59;;;22.13
15144;BMP180;7672;50.834;6.286;2022-07-29T07:43:26;99731.22;;;22.52
15144;BMP180;7672;50.834;6.286;2022-07-29T07:45:53;99733.94;;;23.05
15144;BMP180;7672;50.834;6.286;2022-07-29T07:48:20;99728.09;;;23.39
15144;BMP180;7672;50.834;6.286;2022-07-29T07:50:47;99729.47;;;23.81
15144;BMP180;7672;50.834;6.286;2022-07-29T07:53:16;99725.13;;;24.32
15144;BMP180;7672;50.834;6.286;2022-07-29T07:55:44;99741.59;;;24.95
15144;BMP180;7672;50.834;6.286;2022-07-29T07:58:31;99742.84;;;25.81
15144;BMP180;7672;50.834;6.286;2022-07-29T08:00:58;99742.22;;;26.50
15144;BMP180;7672;50.834;6.286;2022-07-29T08:03:25;99727.84;;;27.14
15144;BMP180;7672;50.834;6.286;2022-07-29T08:05:51;99735.34;;;27.85
15144;BMP180;7672;50.834;6.286;2022-07-29T08:08:18;99732.56;;;28.51
15144;BMP180;7672;50.834;6.286;2022-07-29T08:10:53;99734.47;;;29.10
15144;BMP180;7672;50.834;6.286;2022-07-29T08:13:26;99732.88;;;29.55
15144;BMP180;7672;50.834;6.286;2022-07-29T08:15:57;99729.66;;;29.75
15144;BMP180;7672;50.834;6.286;2022-07-29T08:18:29;99730.78;;;29.84
15144;BMP180;7672;50.834;6.286;2022-07-29T08:20:57;99737.13;;;29.92
15144;BMP180;7672;50.834;6.286;2022-07-29T08:23:24;99737.41;;;30.00
15144;BMP180;7672;50.834;6.286;2022-07-29T08:26:13;99741.88;;;29.98
15144;BMP180;7672;50.834;6.286;2022-07-29T08:28:45;99741.09;;;29.85
15144;BMP180;7672;50.834;6.286;2022-07-29T08:31:15;99733.81;;;29.67
15144;BMP180;7672;50.834;6.286;2022-07-29T08:33:43;99736.56;;;29.53
15144;BMP180;7672;50.834;6.286;2022-07-29T08:36:10;99739.09;;;29.42
15144;BMP180;7672;50.834;6.286;2022-07-29T08:38:39;99738.72;;;29.36
15144;BMP180;7672;50.834;6.286;2022-07-29T08:41:07;99736.22;;;29.22
15144;BMP180;7672;50.834;6.286;2022-07-29T08:43:34;99732.41;;;29.02
15144;BMP180;7672;50.834;6.286;2022-07-29T08:46:04;99723.75;;;28.78
15144;BMP180;7672;50.834;6.286;2022-07-29T08:48:31;99736.41;;;28.58
15144;BMP180;7672;50.834;6.286;2022-07-29T08:50:59;99736.72;;;28.41
15144;BMP180;7672;50.834;6.286;2022-07-29T08:53:28;99736.81;;;28.27
15144;BMP180;7672;50.834;6.286;2022-07-29T08:55:56;99734.25;;;28.13
15144;BMP180;7672;50.834;6.286;2022-07-29T08:58:25;99734.22;;;28.01
15144;BMP180;7672;50.834;6.286;2022-07-29T09:00:55;99736.63;;;27.92
15144;BMP180;7672;50.834;6.286;2022-07-29T09:03:27;99736.09;;;27.87
15144;BMP180;7672;50.834;6.286;2022-07-29T09:05:58;99739.00;;;27.95
15144;BMP180;7672;50.834;6.286;2022-07-29T09:08:25;99736.75;;;28.03
15144;BMP180;7672;50.834;6.286;2022-07-29T09:10:52;99740.72;;;28.08
15144;BMP180;7672;50.834;6.286;2022-07-29T09:13:20;99742.09;;;28.26
15144;BMP180;7672;50.834;6.286;2022-07-29T09:15:47;99740.69;;;28.47
15144;BMP180;7672;50.834;6.286;2022-07-29T09:18:43;99751.81;;;28.61
15144;BMP180;7672;50.834;6.286;2022-07-29T09:21:14;99747.22;;;28.65
15144;BMP180;7672;50.834;6.286;2022-07-29T09:26:42;99745.13;;;28.94
15144;BMP180;7672;50.834;6.286;2022-07-29T09:29:15;99740.38;;;29.60
15144;BMP180;7672;50.834;6.286;2022-07-29T09:31:47;99748.47;;;30.25
15144;BMP180;7672;50.834;6.286;2022-07-29T09:36:52;99752.06;;;31.66
15144;BMP180;7672;50.834;6.286;2022-07-29T09:39:38;99740.94;;;32.36
15144;BMP180;7672;50.834;6.286;2022-07-29T09:42:12;99742.84;;;33.05
15144;BMP180;7672;50.834;6.286;2022-07-29T09:44:50;99745.56;;;33.42
15144;BMP180;7672;50.834;6.286;2022-07-29T09:47:18;99748.94;;;33.73
15144;BMP180;7672;50.834;6.286;2022-07-29T09:49:59;99750.31;;;33.95
15144;BMP180;7672;50.834;6.286;2022-07-29T09:52:28;99752.09;;;34.23
15144;BMP180;7672;50.834;6.286;2022-07-29T09:55:06;99755.34;;;34.63
15144;BMP180;7672;50.834;6.286;2022-07-29T10:01:28;99762.69;;;35.93
15144;BMP180;7672;50.834;6.286;2022-07-29T10:03:55;99755.66;;;36.37
15144;BMP180;7672;50.834;6.286;2022-07-29T10:06:25;99762.09;;;36.85
15144;BMP180;7672;50.834;6.286;2022-07-29T10:08:54;99752.66;;;37.15
15144;BMP180;7672;50.834;6.286;2022-07-29T10:11:21;99764.00;;;37.49
15144;BMP180;7672;50.834;6.286;2022-07-29T10:13:48;99759.09;;;37.78
15144;BMP180;7672;50.834;6.286;2022-07-29T10:16:16;99769.69;;;38.02
15144;BMP180;7672;50.834;6.286;2022-07-29T10:18:50;99759.97;;;38.18
15144;BMP180;7672;50.834;6.286;2022-07-29T10:21:18;99769.88;;;38.32
15144;BMP180;7672;50.834;6.286;2022-07-29T10:24:02;99771.00;;;38.45
15144;BMP180;7672;50.834;6.286;2022-07-29T10:26:30;99773.63;;;38.61
15144;BMP180;7672;50.834;6.286;2022-07-29T10:28:58;99768.66;;;38.82
15144;BMP180;7672;50.834;6.286;2022-07-29T10:31:38;99755.38;;;39.06
15144;BMP180;7672;50.834;6.286;2022-07-29T10:34:25;99769.41;;;39.37
15144;BMP180;7672;50.834;6.286;2022-07-29T10:37:33;99767.34;;;39.55
15144;BMP180;7672;50.834;6.286;2022-07-29T10:40:36;99771.41;;;39.65
15144;BMP180;7672;50.834;6.286;2022-07-29T10:43:29;99747.28;;;39.68
15144;BMP180;7672;50.834;6.286;2022-07-29T10:45:59;99758.59;;;39.76
15144;BMP180;7672;50.834;6.286;2022-07-29T10:48:27;99754.47;;;39.82
15144;BMP180;7672;50.834;6.286;2022-07-29T10:51:03;99755.31;;;39.74
15144;BMP180;7672;50.834;6.286;2022-07-29T10:53:51;99749.50;;;39.57
15144;BMP180;7672;50.834;6.286;2022-07-29T10:56:32;99756.78;;;39.55
15144;BMP180;7672;50.834;6.286;2022-07-29T11:01:50;99761.94;;;39.48
15144;BMP180;7672;50.834;6.286;2022-07-29T11:07:11;99757.63;;;39.47
15144;BMP180;7672;50.834;6.286;2022-07-29T11:09:40;99768.09;;;39.41
15144;BMP180;7672;50.834;6.286;2022-07-29T11:15:24;99759.34;;;38.94
15144;BMP180;7672;50.834;6.286;2022-07-29T11:20:51;99760.59;;;38.60
15144;BMP180;7672;50.834;6.286;2022-07-29T11:23:28;99756.16;;;38.44
15144;BMP180;7672;50.834;6.286;2022-07-29T11:29:01;99761.44;;;38.44
15144;BMP180;7672;50.834;6.286;2022-07-29T11:31:38;99757.47;;;38.48
15144;BMP180;7672;50.834;6.286;2022-07-29T11:34:26;99761.94;;;38.48
15144;BMP180;7672;50.834;6.286;2022-07-29T11:45:09;99769.34;;;38.68
15144;BMP180;7672;50.834;6.286;2022-07-29T11:48:15;99783.88;;;38.56
15144;BMP180;7672;50.834;6.286;2022-07-29T11:50:58;99779.72;;;38.54
15144;BMP180;7672;50.834;6.286;2022-07-29T11:53:26;99780.75;;;38.37
15144;BMP180;7672;50.834;6.286;2022-07-29T11:55:59;99775.63;;;38.20
15144;BMP180;7672;50.834;6.286;2022-07-29T11:58:29;99771.00;;;37.90
15144;BMP180;7672;50.834;6.286;2022-07-29T12:00:57;99764.34;;;37.62
15144;BMP180;7672;50.834;6.286;2022-07-29T12:03:30;99764.44;;;37.29
15144;BMP180;7672;50.834;6.286;2022-07-29T12:06:12;99756.88;;;37.01
15144;BMP180;7672;50.834;6.286;2022-07-29T12:08:45;99767.19;;;36.86
15144;BMP180;7672;50.834;6.286;2022-07-29T12:11:20;99762.00;;;36.77
15144;BMP180;7672;50.834;6.286;2022-07-29T12:13:51;99759.31;;;36.69
15144;BMP180;7672;50.834;6.286;2022-07-29T12:16:20;99758.00;;;36.65
15144;BMP180;7672;50.834;6.286;2022-07-29T12:19:02;99749.38;;;36.55
15144;BMP180;7672;50.834;6.286;2022-07-29T12:21:46;99759.13;;;36.37
15144;BMP180;7672;50.834;6.286;2022-07-29T12:24:22;99760.94;;;36.19
15144;BMP180;7672;50.834;6.286;2022-07-29T12:26:59;99753.59;;;36.05
15144;BMP180;7672;50.834;6.286;2022-07-29T12:29:28;99756.44;;;35.94
15144;BMP180;7672;50.834;6.286;2022-07-29T12:32:02;99748.88;;;35.91
15144;BMP180;7672;50.834;6.286;2022-07-29T12:34:33;99751.50;;;35.91
15144;BMP180;7672;50.834;6.286;2022-07-29T12:37:00;99755.91;;;35.91
15144;BMP180;7672;50.834;6.286;2022-07-29T12:39:28;99749.59;;;35.84
15144;BMP180;7672;50.834;6.286;2022-07-29T12:41:55;99746.22;;;35.74
15144;BMP180;7672;50.834;6.286;2022-07-29T12:44:48;99752.53;;;35.64
15144;BMP180;7672;50.834;6.286;2022-07-29T12:47:52;99745.75;;;35.61
15144;BMP180;7672;50.834;6.286;2022-07-29T12:50:19;99749.59;;;35.67
15144;BMP180;7672;50.834;6.286;2022-07-29T12:52:51;99748.41;;;35.79
15144;BMP180;7672;50.834;6.286;2022-07-29T12:55:41;99747.91;;;35.92
15144;BMP180;7672;50.834;6.286;2022-07-29T12:58:08;99743.63;;;35.91
15144;BMP180;7672;50.834;6.286;2022-07-29T13:00:35;99734.25;;;35.79
15144;BMP180;7672;50.834;6.286;2022-07-29T13:03:02;99739.44;;;35.54
15144;BMP180;7672;50.834;6.286;2022-07-29T13:05:44;99738.47;;;35.28
15144;BMP180;7672;50.834;6.286;2022-07-29T13:08:17;99736.13;;;35.08
15144;BMP180;7672;50.834;6.286;2022-07-29T13:10:48;99731.16;;;34.96
15144;BMP180;7672;50.834;6.286;2022-07-29T13:13:15;99739.19;;;34.94
15144;BMP180;7672;50.834;6.286;2022-07-29T13:15:44;99735.59;;;34.95
15144;BMP180;7672;50.834;6.286;2022-07-29T13:18:33;99736.69;;;35.02
15144;BMP180;7672;50.834;6.286;2022-07-29T13:21:15;99740.53;;;35.08
15144;BMP180;7672;50.834;6.286;2022-07-29T13:23:44;99742.34;;;35.07
15144;BMP180;7672;50.834;6.286;2022-07-29T13:26:11;99739.56;;;35.09
15144;BMP180;7672;50.834;6.286;2022-07-29T13:28:38;99741.91;;;35.12
15144;BMP180;7672;50.834;6.286;2022-07-29T13:31:05;99753.22;;;35.12
15144;BMP180;7672;50.834;6.286;2022-07-29T13:33:32;99753.78;;;35.33
15144;BMP180;7672;50.834;6.286;2022-07-29T13:35:59;99749.91;;;35.10
15144;BMP180;7672;50.834;6.286;2022-07-29T13:38:28;99749.63;;;34.86
15144;BMP180;7672;50.834;6.286;2022-07-29T13:40:57;99748.97;;;34.65
15144;BMP180;7672;50.834;6.286;2022-07-29T13:43:24;99753.44;;;34.46
15144;BMP180;7672;50.834;6.286;2022-07-29T13:45:51;99756.09;;;34.27
15144;BMP180;7672;50.834;6.286;2022-07-29T13:48:18;99755.16;;;34.09
15144;BMP180;7672;50.834;6.286;2022-07-29T13:50:45;99748.50;;;33.96
15144;BMP180;7672;50.834;6.286;2022-07-29T13:53:13;99742.16;;;33.89
15144;BMP180;7672;50.834;6.286;2022-07-29T13:55:43;99749.34;;;33.87
15144;BMP180;7672;50.834;6.286;2022-07-29T13:58:10;99745.19;;;33.85
15144;BMP180;7672;50.834;6.286;2022-07-29T14:00:37;99750.88;;;33.80
15144;BMP180;7672;50.834;6.286;2022-07-29T14:03:04;99742.44;;;33.77
15144;BMP180;7672;50.834;6.286;2022-07-29T14:05:31;99741.47;;;33.68
15144;BMP180;7672;50.834;6.286;2022-07-29T14:07:57;99743.66;;;33.63
15144;BMP180;7672;50.834;6.286;2022-07-29T14:10:25;99739.09;;;33.56
15144;BMP180;7672;50.834;6.286;2022-07-29T14:12:52;99743.88;;;33.51
15144;BMP180;7672;50.834;6.286;2022-07-29T14:15:19;99736.69;;;33.43
15144;BMP180;7672;50.834;6.286;2022-07-29T14:17:46;99742.91;;;33.33
15144;BMP180;7672;50.834;6.286;2022-07-29T14:20:13;99738.59;;;33.22
15144;BMP180;7672;50.834;6.286;2022-07-29T14:22:42;99740.38;;;33.13
15144;BMP180;7672;50.834;6.286;2022-07-29T14:25:11;99746.28;;;33.05
15144;BMP180;7672;50.834;6.286;2022-07-29T14:27:42;99741.16;;;33.04
15144;BMP180;7672;50.834;6.286;2022-07-29T14:30:09;99746.28;;;33.05
15144;BMP180;7672;50.834;6.286;2022-07-29T14:32:36;99740.66;;;33.10
15144;BMP180;7672;50.834;6.286;2022-07-29T14:35:04;99741.06;;;33.15
15144;BMP180;7672;50.834;6.286;2022-07-29T14:37:31;99741.88;;;33.15
15144;BMP180;7672;50.834;6.286;2022-07-29T14:40:07;99739.13;;;33.17
15144;BMP180;7672;50.834;6.286;2022-07-29T14:42:35;99745.09;;;33.19
15144;BMP180;7672;50.834;6.286;2022-07-29T14:45:05;99744.81;;;33.22
15144;BMP180;7672;50.834;6.286;2022-07-29T14:47:32;99746.75;;;33.20
15144;BMP180;7672;50.834;6.286;2022-07-29T14:49:59;99747.69;;;33.19
15144;BMP180;7672;50.834;6.286;2022-07-29T14:52:26;99740.94;;;33.16
15144;BMP180;7672;50.834;6.286;2022-07-29T14:54:53;99746.47;;;33.13
15144;BMP180;7672;50.834;6.286;2022-07-29T14:57:20;99748.94;;;33.15
15144;BMP180;7672;50.834;6.286;2022-07-29T14:59:46;99747.13;;;33.15
15144;BMP180;7672;50.834;6.286;2022-07-29T15:02:13;99741.22;;;33.13
15144;BMP180;7672;50.834;6.286;2022-07-29T15:04:40;99742.72;;;33.16
15144;BMP180;7672;50.834;6.286;2022-07-29T15:07:07;99747.00;;;33.17
15144;BMP180;7672;50.834;6.286;2022-07-29T15:09:34;99740.94;;;33.16
15144;BMP180;7672;50.834;6.286;2022-07-29T15:12:06;99733.22;;;33.15
15144;BMP180;7672;50.834;6.286;2022-07-29T15:14:34;99738.47;;;33.15
15144;BMP180;7672;50.834;6.286;2022-07-29T15:17:01;99740.38;;;33.13
15144;BMP180;7672;50.834;6.286;2022-07-29T15:19:30;99748.06;;;33.05
15144;BMP180;7672;50.834;6.286;2022-07-29T15:21:57;99739.69;;;32.90
15144;BMP180;7672;50.834;6.286;2022-07-29T15:24:25;99742.56;;;32.78
15144;BMP180;7672;50.834;6.286;2022-07-29T15:26:53;99746.78;;;32.69
15144;BMP180;7672;50.834;6.286;2022-07-29T15:29:20;99747.31;;;32.63
15144;BMP180;7672;50.834;6.286;2022-07-29T15:31:47;99746.88;;;32.58
15144;BMP180;7672;50.834;6.286;2022-07-29T15:34:15;99741.75;;;32.57
15144;BMP180;7672;50.834;6.286;2022-07-29T15:36:42;99747.41;;;32.53
15144;BMP180;7672;50.834;6.286;2022-07-29T15:39:20;99740.97;;;32.46
15144;BMP180;7672;50.834;6.286;2022-07-29T15:41:47;99744.50;;;32.35
15144;BMP180;7672;50.834;6.286;2022-07-29T15:44:14;99741.81;;;32.26
15144;BMP180;7672;50.834;6.286;2022-07-29T15:46:41;99739.00;;;32.18
15144;BMP180;7672;50.834;6.286;2022-07-29T15:49:38;99747.03;;;32.05
15144;BMP180;7672;50.834;6.286;2022-07-29T15:52:19;99753.94;;;31.95
15144;BMP180;7672;50.834;6.286;2022-07-29T15:54:55;99741.91;;;31.84
15144;BMP180;7672;50.834;6.286;2022-07-29T15:57:24;99735.88;;;31.72
15144;BMP180;7672;50.834;6.286;2022-07-29T15:59:51;99747.34;;;31.60
15144;BMP180;7672;50.834;6.286;2022-07-29T16:02:18;99737.97;;;31.47
15144;BMP180;7672;50.834;6.286;2022-07-29T16:04:45;99738.09;;;31.34
15144;BMP180;7672;50.834;6.286;2022-07-29T16:07:13;99752.03;;;31.24
15144;BMP180;7672;50.834;6.286;2022-07-29T16:09:41;99742.78;;;31.09
15144;BMP180;7672;50.834;6.286;2022-07-29T16:12:08;99746.53;;;30.94
15144;BMP180;7672;50.834;6.286;2022-07-29T16:14:44;99740.63;;;30.81
15144;BMP180;7672;50.834;6.286;2022-07-29T16:17:11;99736.25;;;30.71
15144;BMP180;7672;50.834;6.286;2022-07-29T16:19:43;99727.00;;;30.67
15144;BMP180;7672;50.834;6.286;2022-07-29T16:22:11;99737.66;;;30.64
15144;BMP180;7672;50.834;6.286;2022-07-29T16:24:39;99737.66;;;30.64
15144;BMP180;7672;50.834;6.286;2022-07-29T16:27:09;99733.50;;;30.62
15144;BMP180;7672;50.834;6.286;2022-07-29T16:29:36;99737.91;;;30.61
15144;BMP180;7672;50.834;6.286;2022-07-29T16:32:04;99737.91;;;30.61
15144;BMP180;7672;50.834;6.286;2022-07-29T16:34:32;99738.03;;;30.60
15144;BMP180;7672;50.834;6.286;2022-07-29T16:36:59;99741.69;;;30.57
15144;BMP180;7672;50.834;6.286;2022-07-29T16:39:26;99745.38;;;30.55
15144;BMP180;7672;50.834;6.286;2022-07-29T16:41:53;99744.75;;;30.51
15144;BMP180;7672;50.834;6.286;2022-07-29T16:44:26;99742.38;;;30.48
15144;BMP180;7672;50.834;6.286;2022-07-29T16:46:52;99739.44;;;30.42
15144;BMP180;7672;50.834;6.286;2022-07-29T16:49:22;99738.66;;;30.40
15144;BMP180;7672;50.834;6.286;2022-07-29T16:51:49;99743.28;;;30.36
15144;BMP180;7672;50.834;6.286;2022-07-29T16:54:16;99736.53;;;30.34
15144;BMP180;7672;50.834;6.286;2022-07-29T16:56:43;99737.59;;;30.31
15144;BMP180;7672;50.834;6.286;2022-07-29T16:59:10;99737.94;;;30.27
15144;BMP180;7672;50.834;6.286;2022-07-29T17:01:37;99743.38;;;30.24
15144;BMP180;7672;50.834;6.286;2022-07-29T17:04:04;99743.72;;;30.19
15144;BMP180;7672;50.834;6.286;2022-07-29T17:06:41;99743.03;;;30.17
15144;BMP180;7672;50.834;6.286;2022-07-29T17:09:10;99751.91;;;30.15
15144;BMP180;7672;50.834;6.286;2022-07-29T17:11:38;99741.47;;;30.15
15144;BMP180;7672;50.834;6.286;2022-07-29T17:14:30;99738.13;;;30.13
15144;BMP180;7672;50.834;6.286;2022-07-29T17:16:59;99745.84;;;30.14
15144;BMP180;7672;50.834;6.286;2022-07-29T17:19:34;99741.56;;;30.13
15144;BMP180;7672;50.834;6.286;2022-07-29T17:22:04;99746.91;;;30.12
15144;BMP180;7672;50.834;6.286;2022-07-29T17:24:45;99752.22;;;30.10
15144;BMP180;7672;50.834;6.286;2022-07-29T17:27:13;99759.94;;;30.12
15144;BMP180;7672;50.834;6.286;2022-07-29T17:29:40;99753.03;;;30.11
15144;BMP180;7672;50.834;6.286;2022-07-29T17:32:08;99759.22;;;30.10
15144;BMP180;7672;50.834;6.286;2022-07-29T17:34:42;99766.44;;;30.06
15144;BMP180;7672;50.834;6.286;2022-07-29T17:37:12;99765.13;;;30.01
15144;BMP180;7672;50.834;6.286;2022-07-29T17:39:41;99771.94;;;29.91
15144;BMP180;7672;50.834;6.286;2022-07-29T17:42:10;99765.47;;;29.84
15144;BMP180;7672;50.834;6.286;2022-07-29T17:44:39;99761.78;;;29.76
15144;BMP180;7672;50.834;6.286;2022-07-29T17:47:07;99760.44;;;29.70
15144;BMP180;7672;50.834;6.286;2022-07-29T17:49:43;99783.19;;;30.15
15144;BMP180;7672;50.834;6.286;2022-07-29T17:52:16;99777.16;;;29.91
15144;BMP180;7672;50.834;6.286;2022-07-29T17:55:04;99772.28;;;29.74
15144;BMP180;7672;50.834;6.286;2022-07-29T17:57:58;99776.53;;;29.64
15144;BMP180;7672;50.834;6.286;2022-07-29T18:00:27;99773.63;;;29.56
15144;BMP180;7672;50.834;6.286;2022-07-29T18:02:54;99779.06;;;29.53
15144;BMP180;7672;50.834;6.286;2022-07-29T18:05:21;99773.34;;;29.48
15144;BMP180;7672;50.834;6.286;2022-07-29T18:07:51;99784.69;;;29.47
15144;BMP180;7672;50.834;6.286;2022-07-29T18:10:23;99783.50;;;29.40
15144;BMP180;7672;50.834;6.286;2022-07-29T18:12:50;99782.97;;;29.36
15144;BMP180;7672;50.834;6.286;2022-07-29T18:15:27;99778.28;;;29.28
15144;BMP180;7672;50.834;6.286;2022-07-29T18:17:55;99783.91;;;29.22
15144;BMP180;7672;50.834;6.286;2022-07-29T18:20:27;99786.22;;;29.14
15144;BMP180;7672;50.834;6.286;2022-07-29T18:22:57;99787.50;;;29.09
15144;BMP180;7672;50.834;6.286;2022-07-29T18:25:41;99787.91;;;29.03